This is the latest recevied weather packets stored in our database for station/object W5DNT. If no packets are shown the sender has not sent any weather packets the latest 10 day(s).
| Time | Temp. | Humidity | Pressure | Rain* | Wind** | Luminosity | Snow |
|---|---|---|---|---|---|---|---|
| 1777958108 | 22.22° C | 76% | 1006.8 hPa | 0 mm | - | - | - |
| 1777957204 | 22.22° C | 76% | 1006.8 hPa | 0 mm | - | - | - |
| 1777956304 | 22.22° C | 76% | 1006.8 hPa | 0 mm | - | - | - |
| 1777955403 | 22.78° C | 74% | 1007 hPa | 0 mm | - | - | - |
| 1777954504 | 22.78° C | 73% | 1007.2 hPa | 0 mm | - | - | - |
| 1777943757 | 25.56° C | 66% | 1006 hPa | 0 mm | - | - | - |
| 1777939253 | 26.67° C | 63% | 1006.4 hPa | 0 mm | - | - | - |
| 1777938349 | 27.22° C | 61% | 1006.7 hPa | 0 mm | - | - | - |
| 1777932938 | 27.22° C | 62% | 1007.1 hPa | 0 mm | - | - | - |
| 1777922123 | 25.56° C | 65% | 1010.2 hPa | 0 mm | - | - | - |
| 1777921212 | 25° C | 65% | 1010.1 hPa | 0 mm | - | - | - |
| 1777912243 | 22.78° C | 68% | 1012.4 hPa | 0 mm | - | - | - |
| 1777908629 | 21.11° C | 72% | 1012.9 hPa | 0 mm | - | - | - |
| 1777905919 | 19.44° C | 78% | 1013.1 hPa | 0 mm | - | - | - |
| 1777901409 | 17.22° C | 81% | 1013.1 hPa | 0 mm | - | - | - |
| 1777900508 | 16.67° C | 82% | 1013.3 hPa | 0 mm | - | - | - |
| 1777899622 | 16.11° C | 82% | 1013.2 hPa | 0 mm | - | - | - |
| 1777898719 | 15.56° C | 83% | 1013 hPa | 0 mm | - | - | - |
| 1777897809 | 15° C | 84% | 1013 hPa | 0 mm | - | - | - |
| 1777896906 | 14.44° C | 84% | 1012.9 hPa | 0 mm | - | - | - |
| 1777896008 | 13.89° C | 81% | 1012.8 hPa | 0 mm | - | - | - |
| 1777894201 | 13.89° C | 82% | 1012.8 hPa | 0 mm | - | - | - |
| 1777893367 | 13.89° C | 81% | 1012.9 hPa | 0 mm | - | - | - |
| 1777892460 | 13.89° C | 81% | 1012.9 hPa | 0 mm | - | - | - |
| 1777890659 | 13.89° C | 78% | 1013.3 hPa | 0 mm | - | - | - |
* Rain latest hour (hover to see other rain measurements)
** Current wind speed in m/s (hover to see current wind gust speed)